Terminal Aerodrome Forecast
Issued by NWS

Home | Current Version | Previous Version | Graphics & Text | Print | Product List | Glossary On
Versions: 1 2 3 4 5 6 7 8 9 10 11 12 13 14 15 16 17 18 19 20
000
FTUS43 KMPX 161748
TAFRNH
TAF
KRNH 161748Z 1618/1718 12009KT P6SM SCT025 BKN060
     FM170100 10008KT 3SM -TSRA BR SCT020 BKN035CB
      TEMPO 1701/1705 1/2SM TSRA OVC020CB
     FM170500 11006KT 4SM -SHRA BR VCTS OVC015CB
     FM170800 18004KT 2SM -SHRA BR OVC004
     FM171400 28008KT 3SM -SHRA BR OVC005=

USA.gov is the U.S. government's official web portal to all federal, state and local government web resources and services.